createdAt,value
2023-04-17T00:00:53.534Z,8.07
2023-04-17T00:01:53.519Z,8.07
2023-04-17T00:02:53.616Z,8.08
2023-04-17T00:03:53.720Z,8.11
2023-04-17T00:04:53.635Z,8.11
2023-04-17T00:05:52.839Z,8.12
2023-04-17T00:06:53.453Z,8.12
2023-04-17T00:07:54.191Z,8.12
2023-04-17T00:08:53.419Z,8.12
2023-04-17T00:09:53.403Z,8.12
2023-04-17T00:11:04.098Z,8.11
2023-04-17T00:11:54.375Z,8.10
2023-04-17T00:12:53.127Z,8.11
2023-04-17T00:13:53.344Z,8.11
2023-04-17T00:14:53.572Z,8.10
2023-04-17T00:15:53.637Z,8.08
2023-04-17T00:16:53.387Z,8.02
2023-04-17T00:17:53.373Z,8.02
2023-04-17T00:18:53.271Z,8.03
2023-04-17T00:19:53.260Z,7.99
2023-04-17T00:20:53.276Z,8.00
2023-04-17T00:21:53.241Z,8.02
2023-04-17T00:22:53.461Z,7.99
2023-04-17T00:23:53.246Z,7.99
2023-04-17T00:24:53.201Z,7.96
2023-04-17T00:25:53.193Z,7.96
2023-04-17T00:26:53.201Z,7.94
2023-04-17T00:27:53.128Z,7.96
2023-04-17T00:28:53.141Z,7.92
2023-04-17T00:29:53.133Z,7.93
2023-04-17T00:30:53.353Z,7.94
2023-04-17T00:31:53.175Z,7.94
2023-04-17T00:32:53.369Z,7.96
2023-04-17T00:33:53.083Z,7.93
2023-04-17T00:34:55.568Z,7.92
2023-04-17T00:35:53.109Z,7.96
2023-04-17T00:36:53.034Z,7.96
2023-04-17T00:37:53.004Z,8.00
2023-04-17T00:38:53.245Z,8.03
2023-04-17T00:39:52.989Z,8.04
2023-04-17T00:40:52.977Z,8.03
2023-04-17T00:41:53.021Z,8.07
2023-04-17T00:42:52.954Z,8.11
2023-04-17T00:43:53.652Z,8.12
2023-04-17T00:44:52.982Z,8.12
2023-04-17T00:45:52.983Z,8.14
2023-04-17T00:46:53.113Z,8.15
2023-04-17T00:47:52.950Z,8.18
2023-04-17T00:48:52.913Z,8.20
2023-04-17T00:49:52.876Z,8.21
2023-04-17T00:50:52.857Z,8.21
2023-04-17T00:51:52.849Z,8.21
2023-04-17T00:52:52.136Z,8.25
2023-04-17T00:53:52.329Z,8.28
2023-04-17T00:54:52.792Z,8.30
2023-04-17T00:55:52.341Z,8.30
2023-04-17T00:56:52.780Z,8.30
2023-04-17T00:57:52.787Z,8.36
2023-04-17T00:58:52.745Z,8.36
2023-04-17T00:59:52.730Z,8.36
2023-04-17T01:00:53.468Z,8.40
2023-04-17T01:01:52.077Z,8.39
2023-04-17T01:02:52.813Z,8.42
2023-04-17T01:03:52.786Z,8.40
2023-04-17T01:04:52.676Z,8.40
2023-04-17T01:05:52.646Z,8.47
2023-04-17T01:06:52.626Z,8.47
2023-04-17T01:07:52.632Z,8.47
2023-04-17T01:08:52.591Z,8.47
2023-04-17T01:09:51.872Z,8.48
2023-04-17T01:10:52.574Z,8.47
2023-04-17T01:11:53.288Z,8.50
2023-04-17T01:12:52.559Z,8.50
2023-04-17T01:13:52.514Z,8.54
2023-04-17T01:14:52.583Z,8.57
2023-04-17T01:15:52.502Z,8.54
2023-04-17T01:16:52.573Z,8.57
2023-04-17T01:17:51.973Z,8.60
2023-04-17T01:18:52.446Z,8.54
2023-04-17T01:19:52.470Z,8.54
2023-04-17T01:20:52.468Z,8.55
2023-04-17T01:21:52.426Z,8.57
2023-04-17T01:22:52.417Z,8.60
2023-04-17T01:23:52.366Z,8.60
2023-04-17T01:24:52.384Z,8.63
2023-04-17T01:25:52.445Z,8.63
2023-04-17T01:26:52.362Z,8.65
2023-04-17T01:27:52.420Z,8.65
2023-04-17T01:28:52.316Z,8.68
2023-04-17T01:29:52.312Z,8.69
2023-04-17T01:30:52.366Z,8.69
2023-04-17T01:31:52.290Z,8.68
2023-04-17T01:32:52.350Z,8.69
2023-04-17T01:33:51.555Z,8.66
2023-04-17T01:34:52.477Z,8.68
2023-04-17T01:35:52.257Z,8.68
2023-04-17T01:36:52.257Z,8.69
2023-04-17T01:37:52.286Z,8.72
2023-04-17T01:38:52.182Z,8.73
2023-04-17T01:39:52.196Z,8.76
2023-04-17T01:40:51.572Z,8.78
2023-04-17T01:41:51.413Z,8.76
2023-04-17T01:42:52.142Z,8.78
2023-04-17T01:43:52.140Z,8.81
2023-04-17T01:44:52.125Z,8.81
2023-04-17T01:45:52.133Z,8.83
2023-04-17T01:46:52.142Z,8.84
2023-04-17T01:47:52.159Z,8.84
2023-04-17T01:48:52.732Z,8.86
2023-04-17T01:49:52.707Z,8.88
2023-04-17T01:50:52.251Z,8.87
2023-04-17T01:51:52.040Z,8.87
2023-04-17T01:52:52.004Z,8.86
2023-04-17T01:53:52.010Z,8.84
2023-04-17T01:54:51.994Z,8.86
2023-04-17T01:55:51.971Z,8.90
2023-04-17T01:56:52.684Z,8.90
2023-04-17T01:57:51.493Z,8.93
2023-04-17T01:58:51.907Z,8.93
2023-04-17T01:59:51.916Z,8.94
2023-04-17T02:00:51.940Z,8.94
2023-04-17T02:01:51.935Z,8.94
2023-04-17T02:02:52.000Z,8.94
2023-04-17T02:03:51.911Z,8.96
2023-04-17T02:04:51.859Z,8.97
2023-04-17T02:05:51.560Z,8.96
2023-04-17T02:06:51.893Z,8.96
2023-04-17T02:07:51.577Z,8.96
2023-04-17T02:08:51.760Z,8.97
2023-04-17T02:09:51.786Z,8.94
2023-04-17T02:10:51.775Z,8.91
2023-04-17T02:11:51.828Z,8.93
2023-04-17T02:12:51.739Z,8.90
2023-04-17T02:13:51.617Z,8.88
2023-04-17T02:14:51.706Z,8.90
2023-04-17T02:15:51.731Z,8.90
2023-04-17T02:16:51.701Z,8.93
2023-04-17T02:17:51.705Z,8.93
2023-04-17T02:18:52.327Z,8.93
2023-04-17T02:19:51.677Z,8.91
2023-04-17T02:20:51.650Z,8.93
2023-04-17T02:21:50.875Z,8.94
2023-04-17T02:22:51.595Z,8.94
2023-04-17T02:23:52.330Z,8.96
2023-04-17T02:24:51.580Z,8.96
2023-04-17T02:25:52.272Z,8.97
2023-04-17T02:26:51.551Z,8.97
2023-04-17T02:27:51.540Z,8.97
2023-04-17T02:28:51.159Z,8.96
2023-04-17T02:29:51.225Z,8.96
2023-04-17T02:30:51.524Z,8.97
2023-04-17T02:31:52.209Z,8.96
2023-04-17T02:32:51.509Z,8.97
2023-04-17T02:33:52.175Z,8.97
2023-04-17T02:34:51.452Z,8.93
2023-04-17T02:35:52.153Z,8.93
2023-04-17T02:36:51.401Z,8.97
2023-04-17T02:37:50.697Z,9.01
2023-04-17T02:38:51.357Z,9.04
2023-04-17T02:39:51.355Z,9.05
2023-04-17T02:40:51.354Z,9.09
2023-04-17T02:41:51.386Z,9.12
2023-04-17T02:42:51.319Z,9.09
2023-04-17T02:43:51.312Z,9.09
2023-04-17T02:44:51.314Z,9.12
2023-04-17T02:45:51.281Z,9.10
2023-04-17T02:46:51.356Z,9.13
2023-04-17T02:47:51.550Z,9.13
2023-04-17T02:48:51.240Z,9.16
2023-04-17T02:49:51.251Z,9.20
2023-04-17T02:50:51.229Z,9.23
2023-04-17T02:51:51.451Z,9.21
2023-04-17T02:52:51.202Z,9.25
2023-04-17T02:53:51.153Z,9.23
2023-04-17T02:54:51.276Z,9.23
2023-04-17T02:55:51.213Z,9.23
2023-04-17T02:56:51.184Z,9.24
2023-04-17T02:57:51.152Z,9.27
2023-04-17T02:58:51.109Z,9.31
2023-04-17T02:59:51.112Z,9.32
2023-04-17T03:00:51.120Z,9.35
2023-04-17T03:01:51.176Z,9.34
2023-04-17T03:02:51.152Z,9.38
2023-04-17T03:03:51.193Z,9.39
2023-04-17T03:04:51.071Z,9.39
2023-04-17T03:05:51.015Z,9.40
2023-04-17T03:06:51.012Z,9.42
2023-04-17T03:07:51.039Z,9.45
2023-04-17T03:08:50.967Z,9.46
2023-04-17T03:09:50.981Z,9.48
2023-04-17T03:10:50.961Z,9.48
2023-04-17T03:11:50.949Z,9.45
2023-04-17T03:12:50.924Z,9.46
2023-04-17T03:13:50.954Z,9.48
2023-04-17T03:14:50.882Z,9.50
2023-04-17T03:15:50.434Z,9.50
2023-04-17T03:16:50.950Z,9.52
2023-04-17T03:17:50.536Z,9.53
2023-04-17T03:18:50.844Z,9.56
2023-04-17T03:19:50.827Z,9.52
2023-04-17T03:20:50.815Z,9.53
2023-04-17T03:21:50.808Z,9.56
2023-04-17T03:22:50.789Z,9.53
2023-04-17T03:23:50.774Z,9.56
2023-04-17T03:24:50.767Z,9.58
2023-04-17T03:25:50.047Z,9.57
2023-04-17T03:26:50.727Z,9.58
2023-04-17T03:27:50.716Z,9.61
2023-04-17T03:28:50.696Z,9.63
2023-04-17T03:29:50.693Z,9.63
2023-04-17T03:30:51.392Z,9.67
2023-04-17T03:31:50.718Z,9.64
2023-04-17T03:32:51.384Z,9.67
2023-04-17T03:33:50.271Z,9.71
2023-04-17T03:34:50.602Z,9.73
2023-04-17T03:35:50.616Z,9.75
2023-04-17T03:36:50.617Z,9.76
2023-04-17T03:37:50.616Z,9.76
2023-04-17T03:38:50.568Z,9.76
2023-04-17T03:39:50.528Z,9.73
2023-04-17T03:40:50.539Z,9.73
2023-04-17T03:41:51.270Z,9.71
2023-04-17T03:42:50.543Z,9.71
2023-04-17T03:43:50.515Z,9.73
2023-04-17T03:44:50.529Z,9.73
2023-04-17T03:45:51.226Z,9.73
2023-04-17T03:46:50.457Z,9.81
2023-04-17T03:47:51.186Z,9.81
2023-04-17T03:48:50.407Z,9.83
2023-04-17T03:49:51.129Z,9.86
2023-04-17T03:50:50.405Z,9.86
2023-04-17T03:51:50.419Z,9.89
2023-04-17T03:52:51.101Z,9.88
2023-04-17T03:53:50.345Z,9.93
2023-04-17T03:54:50.372Z,9.93
2023-04-17T03:55:50.363Z,9.93
2023-04-17T03:56:50.320Z,9.94
2023-04-17T03:57:50.511Z,9.94
2023-04-17T03:58:50.314Z,9.97
2023-04-17T03:59:50.282Z,9.99
2023-04-17T04:00:50.297Z,9.97
2023-04-17T04:01:50.276Z,10.00
2023-04-17T04:02:50.413Z,10.03
2023-04-17T04:03:50.369Z,10.04
2023-04-17T04:04:50.454Z,10.00
2023-04-17T04:05:50.248Z,9.99
2023-04-17T04:06:50.191Z,10.01
2023-04-17T04:07:50.199Z,10.04
2023-04-17T04:08:50.162Z,10.06
2023-04-17T04:09:50.135Z,10.06
2023-04-17T04:10:50.134Z,10.07
2023-04-17T04:11:50.115Z,10.03
2023-04-17T04:12:50.120Z,9.99
2023-04-17T04:13:50.097Z,10.00
2023-04-17T04:14:50.046Z,10.01
2023-04-17T04:15:50.203Z,10.06
2023-04-17T04:16:50.073Z,10.07
2023-04-17T04:17:50.149Z,10.09
2023-04-17T04:18:50.036Z,10.07
2023-04-17T04:19:49.997Z,10.06
2023-04-17T04:20:50.714Z,10.07
2023-04-17T04:21:49.969Z,10.09
2023-04-17T04:22:49.956Z,10.04
2023-04-17T04:23:49.972Z,10.04
2023-04-17T04:24:49.930Z,10.09
2023-04-17T04:25:49.721Z,10.10
2023-04-17T04:26:49.915Z,10.10
2023-04-17T04:27:49.675Z,10.07
2023-04-17T04:28:49.876Z,10.06
2023-04-17T04:29:49.689Z,10.06
2023-04-17T04:30:49.853Z,9.99
2023-04-17T04:31:50.553Z,9.96
2023-04-17T04:32:49.819Z,9.96
2023-04-17T04:33:49.813Z,9.99
2023-04-17T04:34:49.773Z,9.99
2023-04-17T04:35:49.668Z,9.94
2023-04-17T04:36:49.680Z,9.94
2023-04-17T04:37:49.770Z,9.97
2023-04-17T04:38:49.748Z,9.97
2023-04-17T04:39:49.715Z,9.99
2023-04-17T04:40:49.736Z,9.93
2023-04-17T04:41:49.671Z,9.88
2023-04-17T04:42:49.772Z,9.88
2023-04-17T04:43:49.681Z,9.89
2023-04-17T04:44:49.669Z,9.91
2023-04-17T04:45:50.375Z,9.94
2023-04-17T04:46:50.389Z,9.96
2023-04-17T04:47:50.409Z,9.96
2023-04-17T04:48:50.340Z,9.91
2023-04-17T04:49:50.309Z,9.91
2023-04-17T04:50:49.652Z,9.89
2023-04-17T04:51:50.270Z,9.89
2023-04-17T04:52:49.568Z,9.89
2023-04-17T04:53:50.258Z,9.86
2023-04-17T04:54:50.269Z,9.83
2023-04-17T04:55:50.303Z,9.85
2023-04-17T04:56:49.495Z,9.88
2023-04-17T04:57:50.218Z,9.83
2023-04-17T04:58:50.230Z,9.78
2023-04-17T04:59:50.193Z,9.76
2023-04-17T05:00:49.518Z,9.75
2023-04-17T05:01:49.523Z,9.75
2023-04-17T05:02:49.512Z,9.79
2023-04-17T05:03:49.592Z,9.81
2023-04-17T05:04:49.424Z,9.81
2023-04-17T05:05:49.379Z,9.79
2023-04-17T05:06:49.450Z,9.79
2023-04-17T05:07:49.360Z,9.78
2023-04-17T05:08:48.608Z,9.81
2023-04-17T05:09:49.603Z,9.81
2023-04-17T05:10:49.978Z,9.78
2023-04-17T05:11:49.301Z,9.79
2023-04-17T05:12:49.326Z,9.78
2023-04-17T05:13:49.278Z,9.71
2023-04-17T05:14:49.249Z,9.73
2023-04-17T05:15:49.308Z,9.73
2023-04-17T05:16:50.045Z,9.76
2023-04-17T05:17:49.238Z,9.78
2023-04-17T05:18:49.223Z,9.76
2023-04-17T05:19:49.191Z,9.76
2023-04-17T05:20:49.179Z,9.73
2023-04-17T05:21:49.162Z,9.73
2023-04-17T05:22:49.151Z,9.71
2023-04-17T05:23:49.159Z,9.70
2023-04-17T05:24:49.839Z,9.67
2023-04-17T05:25:49.120Z,9.71
2023-04-17T05:26:49.132Z,9.71
2023-04-17T05:27:49.837Z,9.73
2023-04-17T05:28:49.096Z,9.76
2023-04-17T05:29:49.038Z,9.76
2023-04-17T05:30:49.059Z,9.81
2023-04-17T05:31:49.107Z,9.79
2023-04-17T05:32:49.713Z,9.81
2023-04-17T05:33:49.024Z,9.83
2023-04-17T05:34:48.554Z,9.81
2023-04-17T05:35:49.017Z,9.81
2023-04-17T05:36:48.979Z,9.81
2023-04-17T05:37:48.574Z,9.79
2023-04-17T05:38:48.943Z,9.79
2023-04-17T05:39:48.566Z,9.79
2023-04-17T05:40:48.565Z,9.81
2023-04-17T05:41:48.915Z,9.81
2023-04-17T05:42:48.886Z,9.82
2023-04-17T05:43:48.870Z,9.83
2023-04-17T05:44:48.821Z,9.83
2023-04-17T05:45:48.907Z,9.85
2023-04-17T05:46:48.864Z,9.83
2023-04-17T05:47:48.153Z,9.85
2023-04-17T05:48:48.180Z,9.85
2023-04-17T05:49:48.774Z,9.86
2023-04-17T05:50:48.770Z,9.86
2023-04-17T05:51:48.792Z,9.89
2023-04-17T05:52:48.798Z,9.91
2023-04-17T05:53:48.308Z,9.89
2023-04-17T05:54:48.759Z,9.91
2023-04-17T05:55:48.361Z,9.91
2023-04-17T05:56:48.384Z,9.91
2023-04-17T05:57:48.718Z,9.97
2023-04-17T05:58:48.460Z,9.97
2023-04-17T05:59:48.651Z,9.93
2023-04-17T06:00:48.612Z,9.91
2023-04-17T06:01:48.638Z,9.88
2023-04-17T06:02:48.787Z,9.89
2023-04-17T06:03:48.881Z,9.93
2023-04-17T06:04:49.531Z,9.96
2023-04-17T06:05:49.410Z,9.99
2023-04-17T06:06:49.278Z,9.97
2023-04-17T06:07:49.287Z,10.00
2023-04-17T06:08:49.256Z,10.03
2023-04-17T06:09:49.241Z,10.06
2023-04-17T06:10:48.522Z,10.03
2023-04-17T06:11:48.521Z,10.03
2023-04-17T06:12:48.491Z,10.04
2023-04-17T06:13:48.695Z,10.06
2023-04-17T06:14:48.466Z,10.04
2023-04-17T06:15:48.445Z,10.10
2023-04-17T06:16:48.479Z,10.12
2023-04-17T06:17:48.440Z,10.15
2023-04-17T06:18:48.411Z,10.18
2023-04-17T06:19:48.412Z,10.19
2023-04-17T06:20:47.765Z,10.22
2023-04-17T06:21:48.586Z,10.22
2023-04-17T06:22:48.387Z,10.21
2023-04-17T06:23:48.340Z,10.25
2023-04-17T06:24:48.351Z,10.28
2023-04-17T06:25:48.279Z,10.33
2023-04-17T06:26:48.289Z,10.22
2023-04-17T06:27:48.278Z,10.19
2023-04-17T06:28:47.782Z,10.21
2023-04-17T06:29:48.485Z,10.25
2023-04-17T06:30:48.241Z,10.21
2023-04-17T06:31:48.271Z,10.10
2023-04-17T06:32:48.225Z,10.22
2023-04-17T06:33:48.204Z,10.25
2023-04-17T06:34:59.223Z,10.34
2023-04-17T06:35:49.159Z,10.39
2023-04-17T06:36:48.195Z,10.52
2023-04-17T06:37:48.355Z,10.56
2023-04-17T06:38:48.139Z,10.63
2023-04-17T06:39:48.334Z,10.73
2023-04-17T06:40:48.095Z,10.84
2023-04-17T06:41:48.087Z,10.92
2023-04-17T06:42:48.076Z,11.02
2023-04-17T06:43:48.063Z,11.09
2023-04-17T06:44:47.757Z,11.16
2023-04-17T06:45:48.762Z,11.21
2023-04-17T06:46:47.837Z,11.29
2023-04-17T06:47:48.066Z,11.31
2023-04-17T06:48:47.847Z,11.38
2023-04-17T06:49:47.993Z,11.43
2023-04-17T06:50:47.945Z,11.49
2023-04-17T06:51:47.788Z,11.54
2023-04-17T06:52:47.795Z,11.52
2023-04-17T06:53:47.940Z,11.49
2023-04-17T06:54:47.909Z,11.47
2023-04-17T06:55:47.886Z,11.50
2023-04-17T06:56:47.895Z,11.35
2023-04-17T06:57:47.871Z,11.41
2023-04-17T06:58:47.882Z,11.62
2023-04-17T06:59:47.828Z,11.74
2023-04-17T07:00:47.801Z,11.89
2023-04-17T07:01:47.828Z,11.87
2023-04-17T07:02:47.932Z,11.93
2023-04-17T07:03:48.676Z,11.97
2023-04-17T07:04:48.515Z,12.02
2023-04-17T07:05:47.771Z,12.09
2023-04-17T07:06:48.457Z,11.93
2023-04-17T07:07:48.449Z,12.12
2023-04-17T07:08:47.760Z,12.06
2023-04-17T07:09:48.420Z,12.19
2023-04-17T07:10:48.416Z,12.12
2023-04-17T07:11:48.402Z,12.13
2023-04-17T07:12:48.370Z,12.06
2023-04-17T07:13:48.359Z,12.12
2023-04-17T07:14:48.369Z,12.12
2023-04-17T07:15:48.407Z,12.20
2023-04-17T07:16:47.731Z,12.06
2023-04-17T07:17:48.346Z,12.01
2023-04-17T07:18:48.306Z,12.01
2023-04-17T07:19:48.297Z,11.87
2023-04-17T07:20:47.534Z,11.90
2023-04-17T07:21:47.534Z,11.86
2023-04-17T07:22:47.570Z,11.67
2023-04-17T07:23:47.549Z,11.64
2023-04-17T07:24:47.507Z,11.64
2023-04-17T07:25:47.452Z,11.65
2023-04-17T07:26:47.492Z,11.61
2023-04-17T07:27:47.473Z,11.62
2023-04-17T07:28:47.455Z,11.68
2023-04-17T07:29:47.660Z,11.71
2023-04-17T07:30:47.396Z,11.85
2023-04-17T07:31:47.434Z,11.86
2023-04-17T07:32:48.117Z,11.99
2023-04-17T07:33:47.372Z,12.13
2023-04-17T07:34:48.025Z,12.29
2023-04-17T07:35:47.325Z,12.31
2023-04-17T07:36:47.319Z,12.15
2023-04-17T07:37:47.316Z,12.33
2023-04-17T07:38:47.343Z,12.39
2023-04-17T07:39:47.290Z,12.38
2023-04-17T07:40:47.247Z,12.38
2023-04-17T07:41:47.266Z,12.59
2023-04-17T07:42:47.898Z,12.56
2023-04-17T07:43:47.253Z,12.77
2023-04-17T07:44:47.882Z,12.88
2023-04-17T07:45:47.185Z,12.79
2023-04-17T07:46:47.939Z,12.79
2023-04-17T07:47:47.187Z,12.67
2023-04-17T07:48:47.164Z,12.79
2023-04-17T07:49:47.169Z,12.69
2023-04-17T07:50:47.817Z,12.69
2023-04-17T07:51:47.126Z,12.75
2023-04-17T07:52:47.133Z,12.95
2023-04-17T07:53:47.092Z,13.12
2023-04-17T07:54:47.088Z,13.07
2023-04-17T07:55:47.061Z,12.96
2023-04-17T07:56:46.660Z,12.92
2023-04-17T07:57:47.040Z,12.84
2023-04-17T07:58:47.037Z,12.84
2023-04-17T07:59:47.006Z,12.79
2023-04-17T08:00:46.972Z,12.63
2023-04-17T08:01:47.012Z,12.60
2023-04-17T08:02:46.795Z,12.75
2023-04-17T08:03:47.149Z,13.58
2023-04-17T08:04:46.898Z,14.21
2023-04-17T08:05:46.896Z,14.32
2023-04-17T08:06:46.921Z,15.13
2023-04-17T08:07:46.901Z,16.03
2023-04-17T08:08:47.630Z,16.96
2023-04-17T08:09:47.550Z,17.85
2023-04-17T08:10:46.878Z,17.54
2023-04-17T08:11:56.381Z,16.68
2023-04-17T08:12:47.838Z,16.11
2023-04-17T08:13:46.825Z,15.61
2023-04-17T08:14:46.814Z,15.11
2023-04-17T08:15:46.783Z,15.81
2023-04-17T08:16:46.792Z,15.84
2023-04-17T08:17:46.847Z,15.68
2023-04-17T08:18:46.747Z,16.06
2023-04-17T08:19:46.744Z,17.47
2023-04-17T08:20:47.405Z,18.10
2023-04-17T08:21:46.705Z,18.58
2023-04-17T08:22:46.694Z,19.29
2023-04-17T08:23:46.689Z,19.29
2023-04-17T08:24:46.668Z,19.21
2023-04-17T08:25:47.386Z,19.88
2023-04-17T08:26:47.358Z,20.16
2023-04-17T08:27:46.632Z,19.32
2023-04-17T08:28:46.621Z,18.18
2023-04-17T08:29:46.620Z,17.84
2023-04-17T08:30:46.576Z,17.07
2023-04-17T08:31:46.567Z,16.74
2023-04-17T08:32:46.631Z,17.29
2023-04-17T08:33:46.539Z,18.22
2023-04-17T08:34:46.523Z,18.15
2023-04-17T08:35:46.620Z,17.81
2023-04-17T08:36:46.525Z,18.54
2023-04-17T08:37:46.495Z,18.34
2023-04-17T08:38:46.701Z,17.53
2023-04-17T08:39:46.687Z,17.18
2023-04-17T08:40:46.509Z,16.65
2023-04-17T08:41:46.649Z,16.01
2023-04-17T08:42:46.440Z,15.46
2023-04-17T08:43:46.398Z,15.09
2023-04-17T08:44:46.433Z,14.86
2023-04-17T08:45:46.443Z,14.71
2023-04-17T08:46:47.050Z,14.47
2023-04-17T08:47:46.407Z,14.17
2023-04-17T08:48:46.392Z,13.95
2023-04-17T08:49:46.349Z,13.70
2023-04-17T08:50:46.312Z,13.46
2023-04-17T08:51:46.284Z,13.27
2023-04-17T08:52:47.007Z,13.15
2023-04-17T08:53:46.269Z,13.03
2023-04-17T08:54:47.465Z,12.89
2023-04-17T08:55:46.470Z,12.81
2023-04-17T08:56:46.200Z,12.62
2023-04-17T08:57:46.207Z,12.52
2023-04-17T08:58:46.210Z,12.42
2023-04-17T08:59:46.180Z,12.33
2023-04-17T09:00:46.166Z,12.27
2023-04-17T09:01:46.194Z,12.19
2023-04-17T09:02:46.192Z,12.20
2023-04-17T09:03:46.316Z,12.12
2023-04-17T09:04:46.181Z,12.01
2023-04-17T09:05:46.389Z,12.08
2023-04-17T09:06:46.062Z,12.09
2023-04-17T09:07:46.091Z,12.09
2023-04-17T09:08:46.279Z,12.06
2023-04-17T09:09:46.053Z,12.19
2023-04-17T09:10:46.774Z,12.15
2023-04-17T09:11:46.011Z,12.09
2023-04-17T09:12:46.009Z,12.21
2023-04-17T09:13:46.003Z,12.21
2023-04-17T09:14:45.884Z,12.34
2023-04-17T09:15:45.936Z,12.46
2023-04-17T09:16:45.939Z,12.56
2023-04-17T09:17:45.976Z,12.66
2023-04-17T09:18:45.932Z,12.66
2023-04-17T09:19:45.936Z,12.66
2023-04-17T09:20:46.617Z,12.67
2023-04-17T09:21:46.616Z,12.59
2023-04-17T09:22:46.614Z,12.60
2023-04-17T09:23:46.578Z,12.66
2023-04-17T09:24:46.565Z,12.66
2023-04-17T09:25:46.555Z,12.78
2023-04-17T09:26:46.572Z,12.93
2023-04-17T09:27:46.524Z,12.92
2023-04-17T09:28:46.504Z,13.06
2023-04-17T09:29:46.514Z,13.32
2023-04-17T09:30:45.769Z,13.52
2023-04-17T09:31:45.810Z,13.63
2023-04-17T09:32:46.551Z,13.62
2023-04-17T09:33:46.473Z,13.69
2023-04-17T09:34:46.476Z,13.74
2023-04-17T09:35:46.367Z,13.62
2023-04-17T09:36:46.422Z,13.71
2023-04-17T09:37:45.710Z,13.69
2023-04-17T09:38:45.661Z,13.77
2023-04-17T09:39:45.645Z,13.79
2023-04-17T09:40:45.861Z,13.76
2023-04-17T09:41:45.591Z,13.91
2023-04-17T09:42:45.610Z,13.96
2023-04-17T09:43:45.596Z,13.98
2023-04-17T09:44:45.575Z,14.12
2023-04-17T09:45:45.563Z,14.09
2023-04-17T09:46:46.309Z,14.12
2023-04-17T09:47:45.605Z,14.17
2023-04-17T09:48:45.764Z,14.25
2023-04-17T09:49:45.518Z,14.20
2023-04-17T09:50:45.723Z,14.07
2023-04-17T09:51:45.457Z,14.06
2023-04-17T09:52:45.493Z,13.92
2023-04-17T09:53:45.463Z,13.79
2023-04-17T09:54:45.444Z,13.79
2023-04-17T09:55:45.433Z,13.77
2023-04-17T09:56:46.074Z,13.63
2023-04-17T09:57:45.429Z,13.52
2023-04-17T09:58:45.394Z,13.29
2023-04-17T09:59:45.409Z,13.17
2023-04-17T10:00:45.457Z,13.07
2023-04-17T10:01:45.363Z,13.07
2023-04-17T10:02:45.412Z,13.00
2023-04-17T10:03:45.454Z,12.89
2023-04-17T10:04:45.559Z,12.88
2023-04-17T10:05:45.306Z,12.81
2023-04-17T10:06:45.247Z,12.82
2023-04-17T10:07:45.304Z,12.82
2023-04-17T10:08:45.270Z,12.82
2023-04-17T10:09:45.277Z,12.82
2023-04-17T10:10:45.227Z,12.88
2023-04-17T10:11:45.194Z,12.87
2023-04-17T10:12:45.461Z,12.82
2023-04-17T10:13:45.401Z,12.79
2023-04-17T10:14:45.160Z,12.93
2023-04-17T10:15:45.147Z,13.00
2023-04-17T10:16:45.338Z,13.07
2023-04-17T10:17:45.189Z,13.11
2023-04-17T10:18:44.771Z,13.17
2023-04-17T10:19:45.097Z,12.97
2023-04-17T10:20:45.134Z,13.03
2023-04-17T10:21:45.049Z,13.02
2023-04-17T10:22:45.063Z,13.11
2023-04-17T10:23:45.044Z,13.20
2023-04-17T10:24:44.780Z,13.18
2023-04-17T10:25:44.774Z,13.25
2023-04-17T10:26:44.785Z,13.33
2023-04-17T10:27:44.789Z,13.37
2023-04-17T10:28:44.973Z,13.24
2023-04-17T10:29:44.964Z,13.33
2023-04-17T10:30:44.953Z,13.20
2023-04-17T10:31:44.982Z,13.11
2023-04-17T10:32:44.962Z,13.15
2023-04-17T10:33:44.907Z,13.15
2023-04-17T10:34:44.898Z,13.20
2023-04-17T10:35:44.886Z,13.15
2023-04-17T10:36:45.094Z,13.22
2023-04-17T10:37:44.823Z,13.21
2023-04-17T10:38:45.067Z,13.18
2023-04-17T10:39:44.819Z,13.11
2023-04-17T10:40:45.031Z,13.06
2023-04-17T10:41:44.585Z,13.14
2023-04-17T10:42:44.768Z,13.21
2023-04-17T10:43:44.809Z,13.12
2023-04-17T10:44:44.769Z,13.20
2023-04-17T10:45:44.806Z,13.20
2023-04-17T10:46:44.721Z,13.20
2023-04-17T10:47:44.771Z,13.17
2023-04-17T10:48:45.371Z,13.21
2023-04-17T10:49:44.786Z,13.29
2023-04-17T10:50:44.681Z,13.15
2023-04-17T10:51:45.365Z,13.20
2023-04-17T10:52:45.030Z,13.18
2023-04-17T10:53:44.632Z,13.17
2023-04-17T10:54:44.830Z,13.06
2023-04-17T10:55:44.600Z,13.18
2023-04-17T10:56:43.953Z,13.22
2023-04-17T10:57:44.552Z,13.25
2023-04-17T10:58:44.565Z,13.22
2023-04-17T10:59:44.544Z,13.30
2023-04-17T11:00:44.530Z,13.36
2023-04-17T11:01:44.588Z,13.33
2023-04-17T11:02:45.328Z,13.47
2023-04-17T11:03:44.571Z,13.59
2023-04-17T11:04:44.546Z,13.56
2023-04-17T11:05:44.476Z,13.76
2023-04-17T11:06:44.456Z,13.80
2023-04-17T11:07:43.988Z,13.80
2023-04-17T11:08:44.423Z,13.88
2023-04-17T11:09:44.433Z,13.92
2023-04-17T11:10:44.433Z,14.12
2023-04-17T11:11:45.210Z,14.14
2023-04-17T11:12:44.362Z,14.16
2023-04-17T11:13:44.350Z,14.17
2023-04-17T11:14:44.344Z,14.21
2023-04-17T11:15:44.339Z,14.20
2023-04-17T11:16:44.566Z,14.12
2023-04-17T11:17:44.326Z,14.12
2023-04-17T11:18:44.287Z,14.04
2023-04-17T11:19:46.391Z,13.92
2023-04-17T11:20:44.299Z,14.16
2023-04-17T11:21:43.929Z,14.38
2023-04-17T11:22:44.279Z,14.54
2023-04-17T11:23:44.628Z,14.84
2023-04-17T11:24:44.268Z,14.88
2023-04-17T11:25:44.382Z,14.98
2023-04-17T11:26:44.179Z,14.99
2023-04-17T11:27:44.837Z,15.01
2023-04-17T11:28:43.934Z,15.13
2023-04-17T11:29:44.137Z,15.15
2023-04-17T11:30:44.417Z,15.28
2023-04-17T11:31:44.107Z,15.31
2023-04-17T11:32:44.167Z,15.42
2023-04-17T11:33:44.050Z,15.43
2023-04-17T11:34:44.082Z,15.48
2023-04-17T11:35:44.752Z,15.48
2023-04-17T11:36:44.056Z,15.51
2023-04-17T11:37:44.029Z,15.35
2023-04-17T11:38:44.733Z,15.48
2023-04-17T11:39:44.034Z,15.48
2023-04-17T11:40:44.741Z,15.42
2023-04-17T11:41:44.689Z,15.43
2023-04-17T11:42:44.692Z,15.39
2023-04-17T11:43:44.701Z,15.17
2023-04-17T11:44:44.648Z,14.95
2023-04-17T11:45:44.667Z,14.69
2023-04-17T11:46:44.656Z,14.84
2023-04-17T11:47:43.978Z,14.86
2023-04-17T11:48:44.605Z,14.83
2023-04-17T11:49:44.592Z,14.84
2023-04-17T11:50:44.574Z,14.83
2023-04-17T11:51:44.571Z,14.78
2023-04-17T11:52:45.608Z,14.62
2023-04-17T11:53:44.524Z,14.52
2023-04-17T11:54:43.896Z,14.35
2023-04-17T11:55:43.080Z,14.44
2023-04-17T11:56:43.759Z,14.49
2023-04-17T11:57:44.429Z,14.38
2023-04-17T11:58:44.450Z,14.37
2023-04-17T11:59:43.724Z,14.37
2023-04-17T12:00:44.388Z,14.29
2023-04-17T12:01:43.702Z,14.28
2023-04-17T12:02:43.762Z,14.19
2023-04-17T12:03:45.452Z,14.19
2023-04-17T12:04:43.881Z,14.06
2023-04-17T12:05:43.714Z,14.13
2023-04-17T12:06:43.626Z,14.09
2023-04-17T12:07:43.626Z,14.06
2023-04-17T12:08:43.577Z,14.04
2023-04-17T12:09:44.302Z,14.04
2023-04-17T12:10:43.621Z,14.04
2023-04-17T12:11:43.560Z,14.12
2023-04-17T12:12:43.542Z,14.07
2023-04-17T12:13:43.517Z,13.91
2023-04-17T12:14:43.522Z,13.88
2023-04-17T12:15:43.544Z,13.84
2023-04-17T12:16:43.621Z,13.80
2023-04-17T12:17:43.518Z,13.83
2023-04-17T12:18:43.450Z,13.81
2023-04-17T12:19:43.456Z,13.91
2023-04-17T12:20:43.441Z,13.89
2023-04-17T12:21:44.095Z,13.77
2023-04-17T12:22:43.637Z,13.69
2023-04-17T12:23:43.394Z,13.71
2023-04-17T12:24:43.389Z,13.67
2023-04-17T12:25:43.361Z,13.59
2023-04-17T12:26:43.366Z,13.41
2023-04-17T12:27:42.889Z,13.38
2023-04-17T12:28:44.010Z,13.44
2023-04-17T12:29:44.816Z,13.40
2023-04-17T12:30:43.372Z,13.38
2023-04-17T12:31:43.968Z,13.33
2023-04-17T12:32:43.330Z,13.37
2023-04-17T12:33:43.241Z,13.40
2023-04-17T12:34:43.250Z,13.33
2023-04-17T12:35:42.907Z,13.11
2023-04-17T12:36:43.444Z,13.06
2023-04-17T12:37:43.209Z,13.11
2023-04-17T12:38:43.200Z,13.07
2023-04-17T12:39:43.160Z,12.99
2023-04-17T12:40:43.179Z,13.07
2023-04-17T12:41:42.900Z,13.12
2023-04-17T12:42:49.084Z,13.14
2023-04-17T12:43:44.062Z,13.20
2023-04-17T12:44:42.904Z,13.29
2023-04-17T12:45:43.161Z,13.27
2023-04-17T12:46:43.092Z,13.29
2023-04-17T12:47:43.378Z,13.32
2023-04-17T12:48:43.074Z,13.30
2023-04-17T12:49:43.022Z,13.32
2023-04-17T12:50:43.028Z,13.36
2023-04-17T12:51:43.046Z,13.36
2023-04-17T12:52:42.994Z,13.37
2023-04-17T12:53:42.984Z,13.25
2023-04-17T12:54:42.966Z,13.17
2023-04-17T12:55:43.003Z,13.06
2023-04-17T12:56:42.948Z,13.04
2023-04-17T12:57:42.953Z,12.95
2023-04-17T12:58:43.579Z,12.97
2023-04-17T12:59:42.888Z,12.85
2023-04-17T13:00:42.718Z,12.87
2023-04-17T13:01:42.926Z,12.88
2023-04-17T13:02:42.971Z,12.88
2023-04-17T13:03:42.986Z,12.85